Impacts TAF Board INFO
FOR SITUATIONAL AWARENESS. NOT TO BE USED FOR FLIGHT PLANNING PURPOSES.
IDs:

KLAS - Las Vegas/McCarran I, NV, US

Issued at 1729 UTC 24 Mar 2017
Updated at 2003 UTC 24 Mar 2017
Potential Impact None Slight Moderate High
Time1956Z 24/21Z 24/22Z 24/23Z 25/00Z 25/01Z 25/02Z 25/03Z 25/04Z 25/05Z 25/06Z 25/07Z 25/08Z 25/09Z
Type OBS PRVL PRVL PRVL PRVL PRVL PRVL PRVL PRVL PRVL PRVL PRVL PRVL PRVL
VIS 10 >6 >6 >6 >6 >6 >6 >6 >6 >6 >6 >6 >6 >6
CIG -- -- -- -- -- 250 250 250 250 250 250 250 250 250
Cover FEW FEW SCT SCT SCT OVC OVC OVC OVC OVC OVC OVC OVC OVC
FltCat VFR VFR VFR VFR VFR VFR VFR VFR VFR VFR VFR VFR VFR VFR
WX -- -- -- -- -- -- -- -- -- -- -- -- -- --
WDir 90 90 150 150 150 210 210 210 210 210 210 210 210 210
WSpd 8 7 9 9 9 13 13 13 13 13 13 13 13 13
WGst 15 -- -- -- -- 19 19 19 19 19 19 19 19 19

Raw TAF
KLAS 241729Z 2418/2518 VRB05KT P6SM FEW250
  FM242000 09007KT P6SM FEW250
  FM242200 15009KT P6SM SCT250
  FM250100 21013G19KT P6SM FEW120 OVC250
  FM251400 25010KT P6SM SCT120 SCT250


Raw METAR
KLAS 241956Z 09008G15KT 10SM FEW250 21/M02 A3017 RMK AO2 SLP203 T02111017
KLAS 241856Z 07006KT 10SM FEW250 19/M02 A3020 RMK AO2 SLP216 T01941022
KLAS 241756Z 06006KT 10SM FEW250 19/M03 A3021 RMK AO2 SLP220 T01891028 10189 20106 50006

METAR Board
Radar Display
Forecast Discussion

FOR SITUATIONAL AWARENESS. NOT TO BE USED FOR FLIGHT PLANNING PURPOSES.

Page loaded:  20:03 UTC  |   01:03 PM Pacific  |   02:03 PM Mountain  |   03:03 PM Central  |   04:03 PM Eastern

 

ADVISORIES

FORECASTS

FORECASTS

OBSERVATIONS

USER TOOLS

ABOUT US